KAUW/AUW METAR and TAF weather

Enter ICAO airport designator
Station Type Date Time Source
KAUW METAR 2020/09/18 16:54 UTC NOAA

KAUW 181654Z AUTO 19006KT 10SM CLR 11/M02 A3043 RMK AO2 SLP317 T01111022


Station Type Date Time Source
KAUW Decoded METAR 2020/09/18 16:54 UTC NOAA

WAUSAU DOWNTOWN AIRPORT, WI, United States (KAUW) 44-56N 089-37W 362M
Sep 18, 2020 - 12:54 PM EDT / 2020.09.18 1654 UTC
Wind: from the S (190 degrees) at 7 MPH (6 KT):0
Visibility: 10 mile(s):0
Sky conditions: clear
Temperature: 52.0 F (11.1 C)
Dew Point: 28.0 F (-2.2 C)
Relative Humidity: 39%
Pressure (altimeter): 30.43 in. Hg (1030 hPa)
ob: KAUW 181654Z AUTO 19006KT 10SM CLR 11/M02 A3043 RMK AO2 SLP317 T01111022
cycle: 17

Station Type Date Time Source
KAUW TAF 2020/09/18 18:22 UTC NOAA

TAF KAUW 181720Z 1818/1918 03004KT P6SM SKC
FM190100 VRB03KT P6SM SKC
FM191000 14003KT P6SM SCT150
FM191600 20009KT P6SM SCT045

Example: see airport list